sensor_id;sensor_type;location;lat;lon;timestamp;P1;durP1;ratioP1;P2;durP2;ratioP2
19569;SDS011;9931;51.458;7.256;2022-08-19T00:02:11;15.15;;;6.47;;
19569;SDS011;9931;51.458;7.256;2022-08-19T00:04:37;25.70;;;7.10;;
19569;SDS011;9931;51.458;7.256;2022-08-19T00:07:03;16.38;;;6.55;;
19569;SDS011;9931;51.458;7.256;2022-08-19T00:09:29;14.25;;;6.03;;
19569;SDS011;9931;51.458;7.256;2022-08-19T00:11:55;15.15;;;6.28;;
19569;SDS011;9931;51.458;7.256;2022-08-19T00:14:21;30.90;;;7.65;;
19569;SDS011;9931;51.458;7.256;2022-08-19T00:16:47;16.90;;;6.65;;
19569;SDS011;9931;51.458;7.256;2022-08-19T00:19:13;14.77;;;6.20;;
19569;SDS011;9931;51.458;7.256;2022-08-19T00:21:38;16.92;;;6.45;;
19569;SDS011;9931;51.458;7.256;2022-08-19T00:24:08;18.13;;;6.47;;
19569;SDS011;9931;51.458;7.256;2022-08-19T00:26:34;15.55;;;5.75;;
19569;SDS011;9931;51.458;7.256;2022-08-19T00:28:59;16.25;;;6.47;;
19569;SDS011;9931;51.458;7.256;2022-08-19T00:31:25;15.05;;;6.20;;
19569;SDS011;9931;51.458;7.256;2022-08-19T00:33:52;14.95;;;6.10;;
19569;SDS011;9931;51.458;7.256;2022-08-19T00:36:18;15.50;;;6.40;;
19569;SDS011;9931;51.458;7.256;2022-08-19T00:38:43;22.95;;;6.90;;
19569;SDS011;9931;51.458;7.256;2022-08-19T00:41:18;17.17;;;7.07;;
19569;SDS011;9931;51.458;7.256;2022-08-19T00:43:56;16.17;;;6.07;;
19569;SDS011;9931;51.458;7.256;2022-08-19T00:46:21;25.58;;;6.88;;
19569;SDS011;9931;51.458;7.256;2022-08-19T00:48:47;24.10;;;6.80;;
19569;SDS011;9931;51.458;7.256;2022-08-19T00:51:12;21.08;;;7.10;;
19569;SDS011;9931;51.458;7.256;2022-08-19T00:53:37;37.05;;;8.43;;
19569;SDS011;9931;51.458;7.256;2022-08-19T00:56:02;11.98;;;6.43;;
19569;SDS011;9931;51.458;7.256;2022-08-19T00:58:31;13.77;;;6.25;;
19569;SDS011;9931;51.458;7.256;2022-08-19T01:00:57;15.07;;;6.43;;
19569;SDS011;9931;51.458;7.256;2022-08-19T01:03:23;15.20;;;6.50;;
19569;SDS011;9931;51.458;7.256;2022-08-19T01:05:49;16.55;;;6.65;;
19569;SDS011;9931;51.458;7.256;2022-08-19T01:08:15;23.67;;;7.45;;
19569;SDS011;9931;51.458;7.256;2022-08-19T01:10:45;14.15;;;6.13;;
19569;SDS011;9931;51.458;7.256;2022-08-19T01:13:11;49.63;;;9.80;;
19569;SDS011;9931;51.458;7.256;2022-08-19T01:15:40;15.68;;;6.00;;
19569;SDS011;9931;51.458;7.256;2022-08-19T01:18:08;19.90;;;7.30;;
19569;SDS011;9931;51.458;7.256;2022-08-19T01:20:34;15.40;;;6.60;;
19569;SDS011;9931;51.458;7.256;2022-08-19T01:23:00;33.38;;;8.40;;
19569;SDS011;9931;51.458;7.256;2022-08-19T01:25:44;17.25;;;7.55;;
19569;SDS011;9931;51.458;7.256;2022-08-19T01:30:42;17.10;;;7.15;;
19569;SDS011;9931;51.458;7.256;2022-08-19T01:33:08;15.40;;;6.97;;
19569;SDS011;9931;51.458;7.256;2022-08-19T01:35:36;15.18;;;7.28;;
19569;SDS011;9931;51.458;7.256;2022-08-19T01:38:04;16.60;;;6.80;;
19569;SDS011;9931;51.458;7.256;2022-08-19T01:40:33;16.13;;;6.20;;
19569;SDS011;9931;51.458;7.256;2022-08-19T01:42:59;21.75;;;7.57;;
19569;SDS011;9931;51.458;7.256;2022-08-19T01:45:26;10.32;;;6.25;;
19569;SDS011;9931;51.458;7.256;2022-08-19T01:47:51;13.23;;;6.70;;
19569;SDS011;9931;51.458;7.256;2022-08-19T01:50:17;16.30;;;6.95;;
19569;SDS011;9931;51.458;7.256;2022-08-19T01:52:43;15.50;;;6.90;;
19569;SDS011;9931;51.458;7.256;2022-08-19T01:55:10;33.47;;;8.93;;
19569;SDS011;9931;51.458;7.256;2022-08-19T01:57:36;15.45;;;6.75;;
19569;SDS011;9931;51.458;7.256;2022-08-19T02:00:03;20.15;;;7.57;;
19569;SDS011;9931;51.458;7.256;2022-08-19T02:02:30;14.73;;;6.65;;
19569;SDS011;9931;51.458;7.256;2022-08-19T02:04:55;17.97;;;7.47;;
19569;SDS011;9931;51.458;7.256;2022-08-19T02:07:20;16.93;;;6.93;;
19569;SDS011;9931;51.458;7.256;2022-08-19T02:09:46;16.65;;;6.70;;
19569;SDS011;9931;51.458;7.256;2022-08-19T02:12:13;46.85;;;10.05;;
19569;SDS011;9931;51.458;7.256;2022-08-19T02:14:38;30.58;;;8.65;;
19569;SDS011;9931;51.458;7.256;2022-08-19T02:17:03;20.20;;;7.10;;
19569;SDS011;9931;51.458;7.256;2022-08-19T02:19:28;17.30;;;7.50;;
19569;SDS011;9931;51.458;7.256;2022-08-19T02:21:54;16.38;;;7.78;;
19569;SDS011;9931;51.458;7.256;2022-08-19T02:24:19;17.92;;;7.88;;
19569;SDS011;9931;51.458;7.256;2022-08-19T02:26:44;23.67;;;8.88;;
19569;SDS011;9931;51.458;7.256;2022-08-19T02:29:09;15.15;;;7.78;;
19569;SDS011;9931;51.458;7.256;2022-08-19T02:31:35;24.05;;;8.25;;
19569;SDS011;9931;51.458;7.256;2022-08-19T02:34:00;14.35;;;6.97;;
19569;SDS011;9931;51.458;7.256;2022-08-19T02:36:26;14.02;;;6.80;;
19569;SDS011;9931;51.458;7.256;2022-08-19T02:38:53;13.15;;;6.75;;
19569;SDS011;9931;51.458;7.256;2022-08-19T02:41:20;12.10;;;6.40;;
19569;SDS011;9931;51.458;7.256;2022-08-19T02:43:46;16.08;;;6.80;;
19569;SDS011;9931;51.458;7.256;2022-08-19T02:46:12;16.00;;;6.97;;
19569;SDS011;9931;51.458;7.256;2022-08-19T02:48:37;14.38;;;6.70;;
19569;SDS011;9931;51.458;7.256;2022-08-19T02:51:03;10.15;;;6.20;;
19569;SDS011;9931;51.458;7.256;2022-08-19T02:53:28;13.55;;;6.32;;
19569;SDS011;9931;51.458;7.256;2022-08-19T02:55:55;15.05;;;7.10;;
19569;SDS011;9931;51.458;7.256;2022-08-19T02:58:20;14.55;;;6.95;;
19569;SDS011;9931;51.458;7.256;2022-08-19T03:00:50;20.70;;;8.10;;
19569;SDS011;9931;51.458;7.256;2022-08-19T03:03:16;15.30;;;6.93;;
19569;SDS011;9931;51.458;7.256;2022-08-19T03:05:42;19.90;;;7.25;;
19569;SDS011;9931;51.458;7.256;2022-08-19T03:08:08;14.95;;;7.35;;
19569;SDS011;9931;51.458;7.256;2022-08-19T03:10:39;15.30;;;7.03;;
19569;SDS011;9931;51.458;7.256;2022-08-19T03:13:04;17.95;;;7.70;;
19569;SDS011;9931;51.458;7.256;2022-08-19T03:15:29;12.93;;;6.70;;
19569;SDS011;9931;51.458;7.256;2022-08-19T03:17:55;15.30;;;7.20;;
19569;SDS011;9931;51.458;7.256;2022-08-19T03:20:20;13.55;;;6.88;;
19569;SDS011;9931;51.458;7.256;2022-08-19T03:22:45;29.45;;;9.63;;
19569;SDS011;9931;51.458;7.256;2022-08-19T03:25:11;10.55;;;7.20;;
19569;SDS011;9931;51.458;7.256;2022-08-19T03:27:36;17.58;;;7.68;;
19569;SDS011;9931;51.458;7.256;2022-08-19T03:30:02;37.15;;;11.02;;
19569;SDS011;9931;51.458;7.256;2022-08-19T03:32:27;15.85;;;7.80;;
19569;SDS011;9931;51.458;7.256;2022-08-19T03:34:53;22.13;;;9.10;;
19569;SDS011;9931;51.458;7.256;2022-08-19T03:37:18;26.02;;;9.10;;
19569;SDS011;9931;51.458;7.256;2022-08-19T03:39:43;17.10;;;8.45;;
19569;SDS011;9931;51.458;7.256;2022-08-19T03:42:09;15.10;;;8.15;;
19569;SDS011;9931;51.458;7.256;2022-08-19T03:44:34;28.13;;;9.65;;
19569;SDS011;9931;51.458;7.256;2022-08-19T03:47:02;18.05;;;8.25;;
19569;SDS011;9931;51.458;7.256;2022-08-19T03:49:28;16.27;;;7.95;;
19569;SDS011;9931;51.458;7.256;2022-08-19T03:51:54;16.90;;;8.40;;
19569;SDS011;9931;51.458;7.256;2022-08-19T03:54:21;18.73;;;7.95;;
19569;SDS011;9931;51.458;7.256;2022-08-19T03:56:48;41.88;;;11.32;;
19569;SDS011;9931;51.458;7.256;2022-08-19T03:59:16;13.23;;;7.85;;
19569;SDS011;9931;51.458;7.256;2022-08-19T04:01:42;16.02;;;7.85;;
19569;SDS011;9931;51.458;7.256;2022-08-19T04:04:07;18.02;;;8.18;;
19569;SDS011;9931;51.458;7.256;2022-08-19T04:06:34;16.42;;;8.07;;
19569;SDS011;9931;51.458;7.256;2022-08-19T04:09:02;17.15;;;8.02;;
19569;SDS011;9931;51.458;7.256;2022-08-19T04:11:28;19.52;;;8.45;;
19569;SDS011;9931;51.458;7.256;2022-08-19T04:13:55;12.13;;;7.15;;
19569;SDS011;9931;51.458;7.256;2022-08-19T04:16:21;17.27;;;8.38;;
19569;SDS011;9931;51.458;7.256;2022-08-19T04:18:48;21.85;;;10.95;;
19569;SDS011;9931;51.458;7.256;2022-08-19T04:21:21;73.78;;;30.65;;
19569;SDS011;9931;51.458;7.256;2022-08-19T04:23:47;19.13;;;9.00;;
19569;SDS011;9931;51.458;7.256;2022-08-19T04:26:13;16.85;;;8.57;;
19569;SDS011;9931;51.458;7.256;2022-08-19T04:28:39;21.98;;;8.95;;
19569;SDS011;9931;51.458;7.256;2022-08-19T04:31:04;19.27;;;8.45;;
19569;SDS011;9931;51.458;7.256;2022-08-19T04:33:29;25.13;;;9.05;;
19569;SDS011;9931;51.458;7.256;2022-08-19T04:35:54;31.60;;;9.93;;
19569;SDS011;9931;51.458;7.256;2022-08-19T04:38:21;16.77;;;8.48;;
19569;SDS011;9931;51.458;7.256;2022-08-19T04:40:50;18.55;;;8.60;;
19569;SDS011;9931;51.458;7.256;2022-08-19T04:43:35;16.63;;;8.38;;
19569;SDS011;9931;51.458;7.256;2022-08-19T04:46:05;18.40;;;9.70;;
19569;SDS011;9931;51.458;7.256;2022-08-19T04:48:30;27.92;;;9.82;;
19569;SDS011;9931;51.458;7.256;2022-08-19T04:50:56;17.00;;;8.45;;
19569;SDS011;9931;51.458;7.256;2022-08-19T04:53:25;16.10;;;8.85;;
19569;SDS011;9931;51.458;7.256;2022-08-19T04:55:51;20.30;;;9.50;;
19569;SDS011;9931;51.458;7.256;2022-08-19T04:58:17;18.52;;;9.13;;
19569;SDS011;9931;51.458;7.256;2022-08-19T05:00:42;22.70;;;9.60;;
19569;SDS011;9931;51.458;7.256;2022-08-19T05:03:08;15.68;;;8.60;;
19569;SDS011;9931;51.458;7.256;2022-08-19T05:05:33;23.92;;;9.15;;
19569;SDS011;9931;51.458;7.256;2022-08-19T05:08:03;75.43;;;35.83;;
19569;SDS011;9931;51.458;7.256;2022-08-19T05:10:28;20.35;;;9.75;;
19569;SDS011;9931;51.458;7.256;2022-08-19T05:12:55;36.25;;;13.00;;
19569;SDS011;9931;51.458;7.256;2022-08-19T05:15:20;17.75;;;8.30;;
19569;SDS011;9931;51.458;7.256;2022-08-19T05:17:45;24.30;;;9.63;;
19569;SDS011;9931;51.458;7.256;2022-08-19T05:20:30;18.20;;;9.40;;
19569;SDS011;9931;51.458;7.256;2022-08-19T05:23:14;25.17;;;12.00;;
19569;SDS011;9931;51.458;7.256;2022-08-19T05:25:40;32.85;;;11.00;;
19569;SDS011;9931;51.458;7.256;2022-08-19T05:28:05;22.17;;;12.80;;
19569;SDS011;9931;51.458;7.256;2022-08-19T05:30:31;31.00;;;16.83;;
19569;SDS011;9931;51.458;7.256;2022-08-19T05:32:57;16.88;;;9.82;;
19569;SDS011;9931;51.458;7.256;2022-08-19T05:35:22;28.40;;;10.97;;
19569;SDS011;9931;51.458;7.256;2022-08-19T05:37:48;13.88;;;8.27;;
19569;SDS011;9931;51.458;7.256;2022-08-19T05:40:14;19.95;;;9.90;;
19569;SDS011;9931;51.458;7.256;2022-08-19T05:42:39;18.63;;;9.35;;
19569;SDS011;9931;51.458;7.256;2022-08-19T05:45:06;28.65;;;10.23;;
19569;SDS011;9931;51.458;7.256;2022-08-19T05:47:31;23.52;;;10.30;;
19569;SDS011;9931;51.458;7.256;2022-08-19T05:49:57;18.65;;;9.35;;
19569;SDS011;9931;51.458;7.256;2022-08-19T05:52:22;23.40;;;9.73;;
19569;SDS011;9931;51.458;7.256;2022-08-19T05:54:47;22.50;;;9.75;;
19569;SDS011;9931;51.458;7.256;2022-08-19T05:57:13;18.70;;;9.73;;
19569;SDS011;9931;51.458;7.256;2022-08-19T05:59:38;23.65;;;10.68;;
19569;SDS011;9931;51.458;7.256;2022-08-19T06:02:04;17.77;;;9.50;;
19569;SDS011;9931;51.458;7.256;2022-08-19T06:04:30;20.55;;;10.90;;
19569;SDS011;9931;51.458;7.256;2022-08-19T06:06:55;24.15;;;10.32;;
19569;SDS011;9931;51.458;7.256;2022-08-19T06:09:21;26.35;;;10.60;;
19569;SDS011;9931;51.458;7.256;2022-08-19T06:11:51;19.17;;;9.93;;
19569;SDS011;9931;51.458;7.256;2022-08-19T06:14:20;24.75;;;10.32;;
19569;SDS011;9931;51.458;7.256;2022-08-19T06:16:47;44.92;;;19.88;;
19569;SDS011;9931;51.458;7.256;2022-08-19T06:19:16;44.88;;;24.83;;
19569;SDS011;9931;51.458;7.256;2022-08-19T06:21:42;21.52;;;10.32;;
19569;SDS011;9931;51.458;7.256;2022-08-19T06:24:08;24.48;;;10.95;;
19569;SDS011;9931;51.458;7.256;2022-08-19T06:26:34;18.02;;;9.85;;
19569;SDS011;9931;51.458;7.256;2022-08-19T06:29:00;19.10;;;9.57;;
19569;SDS011;9931;51.458;7.256;2022-08-19T06:31:26;15.82;;;9.60;;
19569;SDS011;9931;51.458;7.256;2022-08-19T06:33:52;17.92;;;9.43;;
19569;SDS011;9931;51.458;7.256;2022-08-19T06:36:21;17.55;;;9.45;;
19569;SDS011;9931;51.458;7.256;2022-08-19T06:38:51;19.48;;;9.43;;
19569;SDS011;9931;51.458;7.256;2022-08-19T06:41:17;21.45;;;9.77;;
19569;SDS011;9931;51.458;7.256;2022-08-19T06:43:42;17.50;;;9.30;;
19569;SDS011;9931;51.458;7.256;2022-08-19T06:46:12;21.65;;;11.25;;
19569;SDS011;9931;51.458;7.256;2022-08-19T06:48:38;20.20;;;10.63;;
19569;SDS011;9931;51.458;7.256;2022-08-19T06:51:03;22.70;;;11.65;;
19569;SDS011;9931;51.458;7.256;2022-08-19T06:53:30;22.38;;;11.40;;
19569;SDS011;9931;51.458;7.256;2022-08-19T06:55:55;23.65;;;11.32;;
19569;SDS011;9931;51.458;7.256;2022-08-19T06:58:25;21.35;;;10.73;;
19569;SDS011;9931;51.458;7.256;2022-08-19T07:00:50;21.02;;;10.95;;
19569;SDS011;9931;51.458;7.256;2022-08-19T07:03:16;24.17;;;11.27;;
19569;SDS011;9931;51.458;7.256;2022-08-19T07:05:42;23.85;;;11.98;;
19569;SDS011;9931;51.458;7.256;2022-08-19T07:08:07;24.95;;;12.57;;
19569;SDS011;9931;51.458;7.256;2022-08-19T07:10:32;23.13;;;11.50;;
19569;SDS011;9931;51.458;7.256;2022-08-19T07:12:59;23.08;;;12.15;;
19569;SDS011;9931;51.458;7.256;2022-08-19T07:15:25;22.30;;;11.52;;
19569;SDS011;9931;51.458;7.256;2022-08-19T07:17:50;21.45;;;10.95;;
19569;SDS011;9931;51.458;7.256;2022-08-19T07:20:16;23.35;;;11.95;;
19569;SDS011;9931;51.458;7.256;2022-08-19T07:22:41;20.85;;;12.02;;
19569;SDS011;9931;51.458;7.256;2022-08-19T07:25:08;38.45;;;14.30;;
19569;SDS011;9931;51.458;7.256;2022-08-19T07:27:33;20.05;;;11.07;;
19569;SDS011;9931;51.458;7.256;2022-08-19T07:29:59;19.58;;;11.00;;
19569;SDS011;9931;51.458;7.256;2022-08-19T07:32:24;23.92;;;12.18;;
19569;SDS011;9931;51.458;7.256;2022-08-19T07:34:53;18.40;;;10.95;;
19569;SDS011;9931;51.458;7.256;2022-08-19T07:37:18;21.60;;;11.45;;
19569;SDS011;9931;51.458;7.256;2022-08-19T07:39:43;22.20;;;10.70;;
19569;SDS011;9931;51.458;7.256;2022-08-19T07:42:10;23.20;;;11.30;;
19569;SDS011;9931;51.458;7.256;2022-08-19T07:44:36;22.10;;;11.40;;
19569;SDS011;9931;51.458;7.256;2022-08-19T07:47:02;16.33;;;10.25;;
19569;SDS011;9931;51.458;7.256;2022-08-19T07:49:27;27.70;;;11.43;;
19569;SDS011;9931;51.458;7.256;2022-08-19T07:51:54;18.17;;;10.10;;
19569;SDS011;9931;51.458;7.256;2022-08-19T07:54:22;26.95;;;13.02;;
19569;SDS011;9931;51.458;7.256;2022-08-19T07:56:47;20.95;;;10.43;;
19569;SDS011;9931;51.458;7.256;2022-08-19T07:59:12;24.25;;;11.43;;
19569;SDS011;9931;51.458;7.256;2022-08-19T08:01:38;25.58;;;10.25;;
19569;SDS011;9931;51.458;7.256;2022-08-19T08:04:05;18.10;;;10.23;;
19569;SDS011;9931;51.458;7.256;2022-08-19T08:06:49;20.88;;;9.80;;
19569;SDS011;9931;51.458;7.256;2022-08-19T08:09:34;19.10;;;10.32;;
19569;SDS011;9931;51.458;7.256;2022-08-19T08:12:04;24.70;;;11.48;;
19569;SDS011;9931;51.458;7.256;2022-08-19T08:14:42;24.55;;;12.00;;
19569;SDS011;9931;51.458;7.256;2022-08-19T08:17:09;17.73;;;11.35;;
19569;SDS011;9931;51.458;7.256;2022-08-19T08:19:35;24.15;;;12.43;;
19569;SDS011;9931;51.458;7.256;2022-08-19T08:22:00;23.70;;;12.68;;
19569;SDS011;9931;51.458;7.256;2022-08-19T08:24:27;26.90;;;11.50;;
19569;SDS011;9931;51.458;7.256;2022-08-19T08:26:52;25.15;;;12.48;;
19569;SDS011;9931;51.458;7.256;2022-08-19T08:29:18;23.48;;;12.32;;
19569;SDS011;9931;51.458;7.256;2022-08-19T08:31:45;28.88;;;13.02;;
19569;SDS011;9931;51.458;7.256;2022-08-19T08:34:11;25.90;;;12.85;;
19569;SDS011;9931;51.458;7.256;2022-08-19T08:36:41;22.50;;;13.30;;
19569;SDS011;9931;51.458;7.256;2022-08-19T08:39:12;39.63;;;15.82;;
19569;SDS011;9931;51.458;7.256;2022-08-19T08:44:06;22.50;;;13.38;;
19569;SDS011;9931;51.458;7.256;2022-08-19T08:46:36;28.88;;;13.50;;
19569;SDS011;9931;51.458;7.256;2022-08-19T08:51:48;26.92;;;13.60;;
19569;SDS011;9931;51.458;7.256;2022-08-19T08:54:17;25.48;;;13.13;;
19569;SDS011;9931;51.458;7.256;2022-08-19T08:56:44;35.45;;;19.27;;
19569;SDS011;9931;51.458;7.256;2022-08-19T08:59:12;21.80;;;14.02;;
19569;SDS011;9931;51.458;7.256;2022-08-19T09:01:42;33.45;;;17.05;;
19569;SDS011;9931;51.458;7.256;2022-08-19T09:04:07;28.92;;;15.10;;
19569;SDS011;9931;51.458;7.256;2022-08-19T09:06:40;31.75;;;15.02;;
19569;SDS011;9931;51.458;7.256;2022-08-19T09:11:40;29.13;;;15.48;;
19569;SDS011;9931;51.458;7.256;2022-08-19T09:14:29;24.48;;;15.63;;
19569;SDS011;9931;51.458;7.256;2022-08-19T09:16:56;31.40;;;16.13;;
19569;SDS011;9931;51.458;7.256;2022-08-19T09:19:21;32.60;;;19.73;;
19569;SDS011;9931;51.458;7.256;2022-08-19T09:21:46;31.48;;;18.27;;
19569;SDS011;9931;51.458;7.256;2022-08-19T09:24:12;37.72;;;21.75;;
19569;SDS011;9931;51.458;7.256;2022-08-19T09:26:38;31.60;;;21.23;;
19569;SDS011;9931;51.458;7.256;2022-08-19T09:29:03;36.72;;;20.60;;
19569;SDS011;9931;51.458;7.256;2022-08-19T09:31:30;37.70;;;20.38;;
19569;SDS011;9931;51.458;7.256;2022-08-19T09:33:57;30.67;;;18.42;;
19569;SDS011;9931;51.458;7.256;2022-08-19T09:36:23;31.20;;;19.00;;
19569;SDS011;9931;51.458;7.256;2022-08-19T09:38:49;32.22;;;20.55;;
19569;SDS011;9931;51.458;7.256;2022-08-19T09:41:16;32.08;;;19.20;;
19569;SDS011;9931;51.458;7.256;2022-08-19T09:43:43;35.53;;;20.05;;
19569;SDS011;9931;51.458;7.256;2022-08-19T09:46:10;32.65;;;18.83;;
19569;SDS011;9931;51.458;7.256;2022-08-19T09:48:36;43.10;;;18.80;;
19569;SDS011;9931;51.458;7.256;2022-08-19T09:51:05;64.10;;;36.05;;
19569;SDS011;9931;51.458;7.256;2022-08-19T09:53:31;43.60;;;23.52;;
19569;SDS011;9931;51.458;7.256;2022-08-19T09:55:56;36.92;;;19.77;;
19569;SDS011;9931;51.458;7.256;2022-08-19T09:58:22;34.92;;;19.88;;
19569;SDS011;9931;51.458;7.256;2022-08-19T10:00:52;40.70;;;20.13;;
19569;SDS011;9931;51.458;7.256;2022-08-19T10:03:18;46.22;;;21.52;;
19569;SDS011;9931;51.458;7.256;2022-08-19T10:05:43;45.42;;;20.05;;
19569;SDS011;9931;51.458;7.256;2022-08-19T10:08:19;38.30;;;18.15;;
19569;SDS011;9931;51.458;7.256;2022-08-19T10:10:45;29.33;;;16.85;;
19569;SDS011;9931;51.458;7.256;2022-08-19T10:13:11;31.70;;;16.15;;
19569;SDS011;9931;51.458;7.256;2022-08-19T10:15:36;38.70;;;15.32;;
19569;SDS011;9931;51.458;7.256;2022-08-19T10:18:04;34.85;;;16.00;;
19569;SDS011;9931;51.458;7.256;2022-08-19T10:20:29;29.30;;;14.73;;
19569;SDS011;9931;51.458;7.256;2022-08-19T10:22:55;28.10;;;14.52;;
19569;SDS011;9931;51.458;7.256;2022-08-19T10:25:20;36.35;;;15.32;;
19569;SDS011;9931;51.458;7.256;2022-08-19T10:27:45;31.60;;;13.75;;
19569;SDS011;9931;51.458;7.256;2022-08-19T10:30:10;29.95;;;13.73;;
19569;SDS011;9931;51.458;7.256;2022-08-19T10:32:36;32.90;;;14.07;;
19569;SDS011;9931;51.458;7.256;2022-08-19T10:35:02;27.60;;;13.82;;
19569;SDS011;9931;51.458;7.256;2022-08-19T10:37:28;32.65;;;15.18;;
19569;SDS011;9931;51.458;7.256;2022-08-19T10:39:55;25.25;;;12.38;;
19569;SDS011;9931;51.458;7.256;2022-08-19T10:42:21;28.35;;;12.90;;
19569;SDS011;9931;51.458;7.256;2022-08-19T10:44:46;31.08;;;14.15;;
19569;SDS011;9931;51.458;7.256;2022-08-19T10:47:11;26.20;;;12.95;;
19569;SDS011;9931;51.458;7.256;2022-08-19T10:49:37;29.67;;;14.30;;
19569;SDS011;9931;51.458;7.256;2022-08-19T10:52:22;30.00;;;17.55;;
19569;SDS011;9931;51.458;7.256;2022-08-19T10:55:00;39.33;;;18.77;;
19569;SDS011;9931;51.458;7.256;2022-08-19T10:57:44;31.30;;;13.52;;
19569;SDS011;9931;51.458;7.256;2022-08-19T11:00:09;30.40;;;13.95;;
19569;SDS011;9931;51.458;7.256;2022-08-19T11:02:35;26.23;;;12.63;;
19569;SDS011;9931;51.458;7.256;2022-08-19T11:05:00;26.58;;;13.63;;
19569;SDS011;9931;51.458;7.256;2022-08-19T11:07:25;42.03;;;15.45;;
19569;SDS011;9931;51.458;7.256;2022-08-19T11:09:51;24.90;;;12.82;;
19569;SDS011;9931;51.458;7.256;2022-08-19T11:12:16;23.52;;;12.50;;
19569;SDS011;9931;51.458;7.256;2022-08-19T11:14:42;29.95;;;13.63;;
19569;SDS011;9931;51.458;7.256;2022-08-19T11:17:07;26.40;;;12.65;;
19569;SDS011;9931;51.458;7.256;2022-08-19T11:19:32;26.23;;;12.27;;
19569;SDS011;9931;51.458;7.256;2022-08-19T11:21:58;34.63;;;14.63;;
19569;SDS011;9931;51.458;7.256;2022-08-19T11:24:27;40.70;;;14.07;;
19569;SDS011;9931;51.458;7.256;2022-08-19T11:26:54;29.63;;;15.05;;
19569;SDS011;9931;51.458;7.256;2022-08-19T11:29:24;28.73;;;15.15;;
19569;SDS011;9931;51.458;7.256;2022-08-19T11:31:51;27.73;;;16.98;;
19569;SDS011;9931;51.458;7.256;2022-08-19T11:34:20;29.00;;;15.68;;
19569;SDS011;9931;51.458;7.256;2022-08-19T11:36:46;27.80;;;15.15;;
19569;SDS011;9931;51.458;7.256;2022-08-19T11:39:13;26.05;;;14.95;;
19569;SDS011;9931;51.458;7.256;2022-08-19T11:41:39;25.73;;;14.35;;
19569;SDS011;9931;51.458;7.256;2022-08-19T11:44:05;23.23;;;13.95;;
19569;SDS011;9931;51.458;7.256;2022-08-19T11:46:31;20.60;;;13.55;;
19569;SDS011;9931;51.458;7.256;2022-08-19T11:48:57;29.90;;;14.77;;
19569;SDS011;9931;51.458;7.256;2022-08-19T11:51:23;23.20;;;14.48;;
19569;SDS011;9931;51.458;7.256;2022-08-19T11:53:49;23.02;;;14.93;;
19569;SDS011;9931;51.458;7.256;2022-08-19T11:56:15;18.30;;;12.85;;
19569;SDS011;9931;51.458;7.256;2022-08-19T11:58:40;35.50;;;22.95;;
19569;SDS011;9931;51.458;7.256;2022-08-19T12:01:07;21.75;;;13.35;;
19569;SDS011;9931;51.458;7.256;2022-08-19T12:03:33;17.58;;;11.43;;
19569;SDS011;9931;51.458;7.256;2022-08-19T12:06:02;23.88;;;12.77;;
19569;SDS011;9931;51.458;7.256;2022-08-19T12:08:27;31.50;;;13.35;;
19569;SDS011;9931;51.458;7.256;2022-08-19T12:10:53;26.90;;;12.23;;
19569;SDS011;9931;51.458;7.256;2022-08-19T12:13:18;29.27;;;12.38;;
19569;SDS011;9931;51.458;7.256;2022-08-19T12:15:44;27.08;;;12.18;;
19569;SDS011;9931;51.458;7.256;2022-08-19T12:18:10;24.10;;;11.73;;
19569;SDS011;9931;51.458;7.256;2022-08-19T12:20:37;20.95;;;10.82;;
19569;SDS011;9931;51.458;7.256;2022-08-19T12:23:02;33.40;;;12.98;;
19569;SDS011;9931;51.458;7.256;2022-08-19T12:25:28;23.20;;;9.95;;
19569;SDS011;9931;51.458;7.256;2022-08-19T12:27:53;23.95;;;10.95;;
19569;SDS011;9931;51.458;7.256;2022-08-19T12:30:20;21.92;;;11.52;;
19569;SDS011;9931;51.458;7.256;2022-08-19T12:32:45;39.45;;;13.00;;
19569;SDS011;9931;51.458;7.256;2022-08-19T12:35:10;31.27;;;11.77;;
19569;SDS011;9931;51.458;7.256;2022-08-19T12:37:36;20.90;;;11.65;;
19569;SDS011;9931;51.458;7.256;2022-08-19T12:40:01;20.25;;;9.38;;
19569;SDS011;9931;51.458;7.256;2022-08-19T12:42:28;30.60;;;17.13;;
19569;SDS011;9931;51.458;7.256;2022-08-19T12:44:55;20.63;;;12.68;;
19569;SDS011;9931;51.458;7.256;2022-08-19T12:47:20;13.18;;;8.73;;
19569;SDS011;9931;51.458;7.256;2022-08-19T12:49:46;16.05;;;8.05;;
19569;SDS011;9931;51.458;7.256;2022-08-19T12:52:11;19.13;;;9.13;;
19569;SDS011;9931;51.458;7.256;2022-08-19T12:54:40;21.02;;;9.05;;
19569;SDS011;9931;51.458;7.256;2022-08-19T12:57:06;30.33;;;12.27;;
19569;SDS011;9931;51.458;7.256;2022-08-19T12:59:32;36.17;;;17.80;;
19569;SDS011;9931;51.458;7.256;2022-08-19T13:01:58;21.15;;;9.13;;
19569;SDS011;9931;51.458;7.256;2022-08-19T13:04:23;20.92;;;9.15;;
19569;SDS011;9931;51.458;7.256;2022-08-19T13:06:49;19.98;;;8.40;;
19569;SDS011;9931;51.458;7.256;2022-08-19T13:09:14;15.77;;;7.30;;
19569;SDS011;9931;51.458;7.256;2022-08-19T13:11:39;18.80;;;7.78;;
19569;SDS011;9931;51.458;7.256;2022-08-19T13:14:04;17.73;;;8.18;;
19569;SDS011;9931;51.458;7.256;2022-08-19T13:16:30;18.42;;;7.82;;
19569;SDS011;9931;51.458;7.256;2022-08-19T13:18:56;16.13;;;7.75;;
19569;SDS011;9931;51.458;7.256;2022-08-19T13:21:22;18.13;;;8.05;;
19569;SDS011;9931;51.458;7.256;2022-08-19T13:23:48;18.20;;;8.05;;
19569;SDS011;9931;51.458;7.256;2022-08-19T13:26:13;16.65;;;7.70;;
19569;SDS011;9931;51.458;7.256;2022-08-19T13:28:39;23.35;;;8.43;;
19569;SDS011;9931;51.458;7.256;2022-08-19T13:31:23;16.95;;;7.50;;
19569;SDS011;9931;51.458;7.256;2022-08-19T13:34:07;36.88;;;8.55;;
19569;SDS011;9931;51.458;7.256;2022-08-19T13:36:33;36.10;;;9.20;;
19569;SDS011;9931;51.458;7.256;2022-08-19T13:38:59;24.67;;;7.40;;
19569;SDS011;9931;51.458;7.256;2022-08-19T13:41:24;16.90;;;7.50;;
19569;SDS011;9931;51.458;7.256;2022-08-19T13:43:49;16.17;;;7.82;;
19569;SDS011;9931;51.458;7.256;2022-08-19T13:46:15;18.23;;;7.68;;
19569;SDS011;9931;51.458;7.256;2022-08-19T13:48:40;22.38;;;7.40;;
19569;SDS011;9931;51.458;7.256;2022-08-19T13:51:06;20.83;;;6.93;;
19569;SDS011;9931;51.458;7.256;2022-08-19T13:53:34;19.00;;;7.30;;
19569;SDS011;9931;51.458;7.256;2022-08-19T13:56:00;22.77;;;7.78;;
19569;SDS011;9931;51.458;7.256;2022-08-19T13:58:25;26.33;;;7.47;;
19569;SDS011;9931;51.458;7.256;2022-08-19T14:00:50;20.40;;;7.22;;
19569;SDS011;9931;51.458;7.256;2022-08-19T14:03:16;17.73;;;6.97;;
19569;SDS011;9931;51.458;7.256;2022-08-19T14:05:41;24.83;;;7.85;;
19569;SDS011;9931;51.458;7.256;2022-08-19T14:08:06;15.10;;;6.80;;
19569;SDS011;9931;51.458;7.256;2022-08-19T14:10:32;20.70;;;7.10;;
19569;SDS011;9931;51.458;7.256;2022-08-19T14:12:59;18.60;;;7.30;;
19569;SDS011;9931;51.458;7.256;2022-08-19T14:15:25;16.90;;;7.03;;
19569;SDS011;9931;51.458;7.256;2022-08-19T14:17:51;17.98;;;7.05;;
19569;SDS011;9931;51.458;7.256;2022-08-19T14:20:16;16.08;;;6.55;;
19569;SDS011;9931;51.458;7.256;2022-08-19T14:22:42;25.33;;;8.02;;
19569;SDS011;9931;51.458;7.256;2022-08-19T14:25:08;41.33;;;9.63;;
19569;SDS011;9931;51.458;7.256;2022-08-19T14:27:34;21.10;;;7.70;;
19569;SDS011;9931;51.458;7.256;2022-08-19T14:30:00;35.92;;;9.13;;
19569;SDS011;9931;51.458;7.256;2022-08-19T14:32:26;27.75;;;8.43;;
19569;SDS011;9931;51.458;7.256;2022-08-19T14:34:52;28.75;;;8.55;;
19569;SDS011;9931;51.458;7.256;2022-08-19T14:37:18;26.63;;;7.75;;
19569;SDS011;9931;51.458;7.256;2022-08-19T14:39:43;49.95;;;17.38;;
19569;SDS011;9931;51.458;7.256;2022-08-19T14:42:10;35.20;;;10.43;;
19569;SDS011;9931;51.458;7.256;2022-08-19T14:44:36;29.88;;;8.60;;
19569;SDS011;9931;51.458;7.256;2022-08-19T14:47:01;22.45;;;7.60;;
19569;SDS011;9931;51.458;7.256;2022-08-19T14:49:26;37.63;;;8.73;;